sensor_id;sensor_type;location;lat;lon;timestamp;temperature;humidity
15636;DHT22;7917;50.818;6.972;2022-08-25T00:01:09;21.20;1.00
15636;DHT22;7917;50.818;6.972;2022-08-25T00:03:36;21.20;1.00
15636;DHT22;7917;50.818;6.972;2022-08-25T00:06:05;21.30;1.00
15636;DHT22;7917;50.818;6.972;2022-08-25T00:08:33;21.50;1.00
15636;DHT22;7917;50.818;6.972;2022-08-25T00:11:03;21.50;1.00
15636;DHT22;7917;50.818;6.972;2022-08-25T00:13:31;21.70;1.00
15636;DHT22;7917;50.818;6.972;2022-08-25T00:16:00;21.70;1.00
15636;DHT22;7917;50.818;6.972;2022-08-25T00:18:28;21.70;1.00
15636;DHT22;7917;50.818;6.972;2022-08-25T00:20:56;21.70;1.00
15636;DHT22;7917;50.818;6.972;2022-08-25T00:23:23;21.60;1.00
15636;DHT22;7917;50.818;6.972;2022-08-25T00:25:50;21.60;1.00
15636;DHT22;7917;50.818;6.972;2022-08-25T00:28:18;21.50;1.00
15636;DHT22;7917;50.818;6.972;2022-08-25T00:30:46;21.50;1.00
15636;DHT22;7917;50.818;6.972;2022-08-25T00:33:16;21.40;1.00
15636;DHT22;7917;50.818;6.972;2022-08-25T00:35:44;21.30;1.00
15636;DHT22;7917;50.818;6.972;2022-08-25T00:38:11;21.30;1.00
15636;DHT22;7917;50.818;6.972;2022-08-25T00:40:41;21.20;1.00
15636;DHT22;7917;50.818;6.972;2022-08-25T00:43:10;21.20;1.00
15636;DHT22;7917;50.818;6.972;2022-08-25T00:45:38;21.10;1.00
15636;DHT22;7917;50.818;6.972;2022-08-25T00:48:06;21.10;1.00
15636;DHT22;7917;50.818;6.972;2022-08-25T00:50:35;21.10;1.00
15636;DHT22;7917;50.818;6.972;2022-08-25T00:53:03;21.00;1.00
15636;DHT22;7917;50.818;6.972;2022-08-25T00:55:35;20.90;1.00
15636;DHT22;7917;50.818;6.972;2022-08-25T00:58:07;20.80;1.00
15636;DHT22;7917;50.818;6.972;2022-08-25T01:00:41;20.70;1.00
15636;DHT22;7917;50.818;6.972;2022-08-25T01:03:09;20.70;1.00
15636;DHT22;7917;50.818;6.972;2022-08-25T01:05:39;20.60;1.00
15636;DHT22;7917;50.818;6.972;2022-08-25T01:08:11;20.50;1.00
15636;DHT22;7917;50.818;6.972;2022-08-25T01:10:40;20.40;13.30
15636;DHT22;7917;50.818;6.972;2022-08-25T01:13:13;20.30;33.10
15636;DHT22;7917;50.818;6.972;2022-08-25T01:15:43;20.10;92.40
15636;DHT22;7917;50.818;6.972;2022-08-25T01:18:10;20.00;99.90
15636;DHT22;7917;50.818;6.972;2022-08-25T01:20:39;19.90;99.90
15636;DHT22;7917;50.818;6.972;2022-08-25T01:23:08;19.80;99.90
15636;DHT22;7917;50.818;6.972;2022-08-25T01:25:44;19.70;99.90
15636;DHT22;7917;50.818;6.972;2022-08-25T01:28:15;19.70;99.90
15636;DHT22;7917;50.818;6.972;2022-08-25T01:30:42;19.60;99.90
15636;DHT22;7917;50.818;6.972;2022-08-25T01:33:11;19.50;99.90
15636;DHT22;7917;50.818;6.972;2022-08-25T01:35:39;19.50;1.00
15636;DHT22;7917;50.818;6.972;2022-08-25T01:38:08;19.50;1.00
15636;DHT22;7917;50.818;6.972;2022-08-25T01:40:37;19.50;1.00
15636;DHT22;7917;50.818;6.972;2022-08-25T01:43:15;19.50;1.00
15636;DHT22;7917;50.818;6.972;2022-08-25T01:45:47;19.50;1.00
15636;DHT22;7917;50.818;6.972;2022-08-25T01:48:17;19.40;1.00
15636;DHT22;7917;50.818;6.972;2022-08-25T01:50:45;19.30;1.00
15636;DHT22;7917;50.818;6.972;2022-08-25T01:53:18;19.30;1.00
15636;DHT22;7917;50.818;6.972;2022-08-25T01:55:48;19.30;1.00
15636;DHT22;7917;50.818;6.972;2022-08-25T01:58:21;19.20;1.00
15636;DHT22;7917;50.818;6.972;2022-08-25T02:00:49;19.20;1.00
15636;DHT22;7917;50.818;6.972;2022-08-25T02:03:19;19.10;1.00
15636;DHT22;7917;50.818;6.972;2022-08-25T02:05:46;19.00;1.00
15636;DHT22;7917;50.818;6.972;2022-08-25T02:08:15;19.00;3.70
15636;DHT22;7917;50.818;6.972;2022-08-25T02:10:42;18.90;4.30
15636;DHT22;7917;50.818;6.972;2022-08-25T02:13:11;18.90;32.30
15636;DHT22;7917;50.818;6.972;2022-08-25T02:15:40;18.80;99.90
15636;DHT22;7917;50.818;6.972;2022-08-25T02:18:08;18.80;99.90
15636;DHT22;7917;50.818;6.972;2022-08-25T02:20:35;18.80;1.00
15636;DHT22;7917;50.818;6.972;2022-08-25T02:23:03;18.90;1.00
15636;DHT22;7917;50.818;6.972;2022-08-25T02:25:32;18.80;1.00
15636;DHT22;7917;50.818;6.972;2022-08-25T02:28:00;18.80;1.00
15636;DHT22;7917;50.818;6.972;2022-08-25T02:30:27;18.80;1.00
15636;DHT22;7917;50.818;6.972;2022-08-25T02:32:55;18.70;1.00
15636;DHT22;7917;50.818;6.972;2022-08-25T02:35:22;18.70;1.00
15636;DHT22;7917;50.818;6.972;2022-08-25T02:37:50;18.60;1.00
15636;DHT22;7917;50.818;6.972;2022-08-25T02:40:18;18.50;1.00
15636;DHT22;7917;50.818;6.972;2022-08-25T02:42:49;18.50;1.00
15636;DHT22;7917;50.818;6.972;2022-08-25T02:45:17;18.40;1.00
15636;DHT22;7917;50.818;6.972;2022-08-25T02:47:47;18.40;1.00
15636;DHT22;7917;50.818;6.972;2022-08-25T02:50:15;18.40;27.90
15636;DHT22;7917;50.818;6.972;2022-08-25T02:52:43;18.30;99.90
15636;DHT22;7917;50.818;6.972;2022-08-25T02:55:11;18.20;99.90
15636;DHT22;7917;50.818;6.972;2022-08-25T02:57:39;18.20;99.90
15636;DHT22;7917;50.818;6.972;2022-08-25T03:00:11;18.20;99.90
15636;DHT22;7917;50.818;6.972;2022-08-25T03:02:39;18.10;99.90
15636;DHT22;7917;50.818;6.972;2022-08-25T03:05:07;18.10;99.90
15636;DHT22;7917;50.818;6.972;2022-08-25T03:07:35;18.10;99.90
15636;DHT22;7917;50.818;6.972;2022-08-25T03:10:07;18.10;3.50
15636;DHT22;7917;50.818;6.972;2022-08-25T03:12:35;18.10;1.00
15636;DHT22;7917;50.818;6.972;2022-08-25T03:15:02;18.20;1.00
15636;DHT22;7917;50.818;6.972;2022-08-25T03:17:31;18.20;99.90
15636;DHT22;7917;50.818;6.972;2022-08-25T03:19:58;18.30;36.80
15636;DHT22;7917;50.818;6.972;2022-08-25T03:22:40;18.30;1.00
15636;DHT22;7917;50.818;6.972;2022-08-25T03:25:07;18.30;1.00
15636;DHT22;7917;50.818;6.972;2022-08-25T03:28:01;18.30;1.00
15636;DHT22;7917;50.818;6.972;2022-08-25T03:30:29;18.30;1.00
15636;DHT22;7917;50.818;6.972;2022-08-25T03:32:57;18.20;1.00
15636;DHT22;7917;50.818;6.972;2022-08-25T03:35:25;18.20;1.00
15636;DHT22;7917;50.818;6.972;2022-08-25T03:37:54;18.20;1.00
15636;DHT22;7917;50.818;6.972;2022-08-25T03:40:22;18.20;38.90
15636;DHT22;7917;50.818;6.972;2022-08-25T03:42:49;18.20;99.90
15636;DHT22;7917;50.818;6.972;2022-08-25T03:45:17;18.20;64.20
15636;DHT22;7917;50.818;6.972;2022-08-25T03:47:46;18.10;57.30
15636;DHT22;7917;50.818;6.972;2022-08-25T03:50:17;18.10;51.20
15636;DHT22;7917;50.818;6.972;2022-08-25T03:52:50;18.10;99.90
15636;DHT22;7917;50.818;6.972;2022-08-25T03:55:19;18.10;99.90
15636;DHT22;7917;50.818;6.972;2022-08-25T03:57:47;18.00;99.90
15636;DHT22;7917;50.818;6.972;2022-08-25T04:00:15;18.00;99.90
15636;DHT22;7917;50.818;6.972;2022-08-25T04:02:42;17.90;99.90
15636;DHT22;7917;50.818;6.972;2022-08-25T04:05:10;17.90;99.90
15636;DHT22;7917;50.818;6.972;2022-08-25T04:07:39;17.90;99.90
15636;DHT22;7917;50.818;6.972;2022-08-25T04:10:08;17.80;99.90
15636;DHT22;7917;50.818;6.972;2022-08-25T04:12:36;17.90;99.90
15636;DHT22;7917;50.818;6.972;2022-08-25T04:15:04;17.90;99.90
15636;DHT22;7917;50.818;6.972;2022-08-25T04:17:32;18.10;69.50
15636;DHT22;7917;50.818;6.972;2022-08-25T04:20:00;18.20;1.00
15636;DHT22;7917;50.818;6.972;2022-08-25T04:22:29;18.40;1.00
15636;DHT22;7917;50.818;6.972;2022-08-25T04:24:59;18.30;1.00
15636;DHT22;7917;50.818;6.972;2022-08-25T04:27:26;18.30;1.00
15636;DHT22;7917;50.818;6.972;2022-08-25T04:29:53;18.30;1.00
15636;DHT22;7917;50.818;6.972;2022-08-25T04:32:21;18.30;1.00
15636;DHT22;7917;50.818;6.972;2022-08-25T04:34:48;18.30;1.00
15636;DHT22;7917;50.818;6.972;2022-08-25T04:37:15;18.20;13.70
15636;DHT22;7917;50.818;6.972;2022-08-25T04:39:43;18.20;14.90
15636;DHT22;7917;50.818;6.972;2022-08-25T04:42:11;18.20;90.90
15636;DHT22;7917;50.818;6.972;2022-08-25T04:44:39;18.20;99.90
15636;DHT22;7917;50.818;6.972;2022-08-25T04:47:06;18.20;99.90
15636;DHT22;7917;50.818;6.972;2022-08-25T04:49:35;18.10;99.90
15636;DHT22;7917;50.818;6.972;2022-08-25T04:52:03;18.10;99.90
15636;DHT22;7917;50.818;6.972;2022-08-25T04:54:30;18.10;99.90
15636;DHT22;7917;50.818;6.972;2022-08-25T04:56:57;18.10;99.90
15636;DHT22;7917;50.818;6.972;2022-08-25T04:59:26;18.20;99.90
15636;DHT22;7917;50.818;6.972;2022-08-25T05:01:53;18.20;99.90
15636;DHT22;7917;50.818;6.972;2022-08-25T05:04:22;18.20;99.90
15636;DHT22;7917;50.818;6.972;2022-08-25T05:06:49;18.20;99.90
15636;DHT22;7917;50.818;6.972;2022-08-25T05:09:17;18.20;99.90
15636;DHT22;7917;50.818;6.972;2022-08-25T05:11:48;18.20;99.90
15636;DHT22;7917;50.818;6.972;2022-08-25T05:14:15;18.30;49.20
15636;DHT22;7917;50.818;6.972;2022-08-25T05:16:50;18.40;99.90
15636;DHT22;7917;50.818;6.972;2022-08-25T05:19:18;18.50;8.10
15636;DHT22;7917;50.818;6.972;2022-08-25T05:21:46;18.50;1.00
15636;DHT22;7917;50.818;6.972;2022-08-25T05:24:13;18.60;1.00
15636;DHT22;7917;50.818;6.972;2022-08-25T05:26:40;18.80;1.00
15636;DHT22;7917;50.818;6.972;2022-08-25T05:29:08;18.80;1.00
15636;DHT22;7917;50.818;6.972;2022-08-25T05:31:36;18.90;1.00
15636;DHT22;7917;50.818;6.972;2022-08-25T05:34:06;18.90;1.00
15636;DHT22;7917;50.818;6.972;2022-08-25T05:36:34;18.90;1.00
15636;DHT22;7917;50.818;6.972;2022-08-25T05:39:03;19.00;1.00
15636;DHT22;7917;50.818;6.972;2022-08-25T05:41:30;19.10;1.00
15636;DHT22;7917;50.818;6.972;2022-08-25T05:43:58;19.20;1.00
15636;DHT22;7917;50.818;6.972;2022-08-25T05:46:26;19.30;1.00
15636;DHT22;7917;50.818;6.972;2022-08-25T05:48:53;19.50;99.90
15636;DHT22;7917;50.818;6.972;2022-08-25T05:51:22;19.60;99.90
15636;DHT22;7917;50.818;6.972;2022-08-25T05:53:50;19.70;99.90
15636;DHT22;7917;50.818;6.972;2022-08-25T05:56:18;19.80;99.90
15636;DHT22;7917;50.818;6.972;2022-08-25T05:58:47;19.80;99.90
15636;DHT22;7917;50.818;6.972;2022-08-25T06:01:22;20.00;99.90
15636;DHT22;7917;50.818;6.972;2022-08-25T06:04:08;20.10;99.90
15636;DHT22;7917;50.818;6.972;2022-08-25T06:06:37;20.20;99.90
15636;DHT22;7917;50.818;6.972;2022-08-25T06:09:04;20.30;99.90
15636;DHT22;7917;50.818;6.972;2022-08-25T06:11:34;20.60;97.20
15636;DHT22;7917;50.818;6.972;2022-08-25T06:14:02;20.70;99.90
15636;DHT22;7917;50.818;6.972;2022-08-25T06:16:29;20.90;33.60
15636;DHT22;7917;50.818;6.972;2022-08-25T06:18:57;21.20;1.00
15636;DHT22;7917;50.818;6.972;2022-08-25T06:21:26;21.40;1.00
15636;DHT22;7917;50.818;6.972;2022-08-25T06:23:55;21.70;1.00
15636;DHT22;7917;50.818;6.972;2022-08-25T06:26:22;22.00;1.00
15636;DHT22;7917;50.818;6.972;2022-08-25T06:28:50;22.20;1.00
15636;DHT22;7917;50.818;6.972;2022-08-25T06:31:18;22.40;1.00
15636;DHT22;7917;50.818;6.972;2022-08-25T06:33:47;22.60;1.00
15636;DHT22;7917;50.818;6.972;2022-08-25T06:36:14;22.70;1.00
15636;DHT22;7917;50.818;6.972;2022-08-25T06:38:41;22.90;1.00
15636;DHT22;7917;50.818;6.972;2022-08-25T06:41:13;23.10;1.00
15636;DHT22;7917;50.818;6.972;2022-08-25T06:43:41;23.20;1.00
15636;DHT22;7917;50.818;6.972;2022-08-25T06:46:10;23.40;1.00
15636;DHT22;7917;50.818;6.972;2022-08-25T06:48:37;23.50;1.00
15636;DHT22;7917;50.818;6.972;2022-08-25T06:51:06;23.60;1.00
15636;DHT22;7917;50.818;6.972;2022-08-25T06:53:35;23.70;1.00
15636;DHT22;7917;50.818;6.972;2022-08-25T06:56:03;23.80;1.00
15636;DHT22;7917;50.818;6.972;2022-08-25T06:58:34;24.10;1.00
15636;DHT22;7917;50.818;6.972;2022-08-25T07:01:10;24.30;1.00
15636;DHT22;7917;50.818;6.972;2022-08-25T07:03:38;24.50;1.00
15636;DHT22;7917;50.818;6.972;2022-08-25T07:06:06;24.50;1.00
15636;DHT22;7917;50.818;6.972;2022-08-25T07:08:33;24.50;1.00
15636;DHT22;7917;50.818;6.972;2022-08-25T07:11:04;24.70;1.00
15636;DHT22;7917;50.818;6.972;2022-08-25T07:13:31;24.70;1.00
15636;DHT22;7917;50.818;6.972;2022-08-25T07:16:00;24.70;1.00
15636;DHT22;7917;50.818;6.972;2022-08-25T07:18:27;24.90;1.00
15636;DHT22;7917;50.818;6.972;2022-08-25T07:20:55;25.00;1.00
15636;DHT22;7917;50.818;6.972;2022-08-25T07:23:23;25.00;1.00
15636;DHT22;7917;50.818;6.972;2022-08-25T07:26:05;25.10;1.00
15636;DHT22;7917;50.818;6.972;2022-08-25T07:28:33;25.30;1.00
15636;DHT22;7917;50.818;6.972;2022-08-25T07:31:01;25.50;1.00
15636;DHT22;7917;50.818;6.972;2022-08-25T07:33:28;25.60;1.00
15636;DHT22;7917;50.818;6.972;2022-08-25T07:35:56;25.70;1.00
15636;DHT22;7917;50.818;6.972;2022-08-25T07:38:22;25.80;1.00
15636;DHT22;7917;50.818;6.972;2022-08-25T07:40:49;25.90;1.00
15636;DHT22;7917;50.818;6.972;2022-08-25T07:43:22;26.10;99.90
15636;DHT22;7917;50.818;6.972;2022-08-25T07:45:49;26.20;99.90
15636;DHT22;7917;50.818;6.972;2022-08-25T07:48:18;26.30;99.90
15636;DHT22;7917;50.818;6.972;2022-08-25T07:50:46;26.40;99.90
15636;DHT22;7917;50.818;6.972;2022-08-25T07:53:15;26.70;99.90
15636;DHT22;7917;50.818;6.972;2022-08-25T07:55:43;26.70;99.90
15636;DHT22;7917;50.818;6.972;2022-08-25T07:58:10;26.90;99.90
15636;DHT22;7917;50.818;6.972;2022-08-25T08:00:38;27.00;99.90
15636;DHT22;7917;50.818;6.972;2022-08-25T08:03:07;27.10;99.90
15636;DHT22;7917;50.818;6.972;2022-08-25T08:05:39;27.20;99.90
15636;DHT22;7917;50.818;6.972;2022-08-25T08:08:06;27.20;99.90
15636;DHT22;7917;50.818;6.972;2022-08-25T08:10:38;27.20;99.90
15636;DHT22;7917;50.818;6.972;2022-08-25T08:13:05;27.30;99.90
15636;DHT22;7917;50.818;6.972;2022-08-25T08:15:34;27.40;99.90
15636;DHT22;7917;50.818;6.972;2022-08-25T08:18:02;27.50;99.90
15636;DHT22;7917;50.818;6.972;2022-08-25T08:20:33;27.60;99.90
15636;DHT22;7917;50.818;6.972;2022-08-25T08:23:02;27.60;99.90
15636;DHT22;7917;50.818;6.972;2022-08-25T08:25:30;27.80;99.90
15636;DHT22;7917;50.818;6.972;2022-08-25T08:27:57;28.00;99.90
15636;DHT22;7917;50.818;6.972;2022-08-25T08:30:25;28.30;99.90
15636;DHT22;7917;50.818;6.972;2022-08-25T08:32:52;28.30;99.90
15636;DHT22;7917;50.818;6.972;2022-08-25T08:35:27;28.40;99.90
15636;DHT22;7917;50.818;6.972;2022-08-25T08:37:56;28.50;99.90
15636;DHT22;7917;50.818;6.972;2022-08-25T08:40:24;28.50;99.90
15636;DHT22;7917;50.818;6.972;2022-08-25T08:43:00;28.90;99.90
15636;DHT22;7917;50.818;6.972;2022-08-25T08:45:33;28.90;99.90
15636;DHT22;7917;50.818;6.972;2022-08-25T08:48:21;29.10;99.90
15636;DHT22;7917;50.818;6.972;2022-08-25T08:50:59;29.30;99.90
15636;DHT22;7917;50.818;6.972;2022-08-25T08:53:39;29.20;99.90
15636;DHT22;7917;50.818;6.972;2022-08-25T08:56:10;29.20;99.90
15636;DHT22;7917;50.818;6.972;2022-08-25T08:58:41;29.20;99.90
15636;DHT22;7917;50.818;6.972;2022-08-25T09:01:15;29.30;99.90
15636;DHT22;7917;50.818;6.972;2022-08-25T09:03:46;29.50;99.90
15636;DHT22;7917;50.818;6.972;2022-08-25T09:06:21;29.30;99.90
15636;DHT22;7917;50.818;6.972;2022-08-25T09:08:51;29.50;99.90
15636;DHT22;7917;50.818;6.972;2022-08-25T09:11:28;29.50;99.90
15636;DHT22;7917;50.818;6.972;2022-08-25T09:14:10;29.70;99.90
15636;DHT22;7917;50.818;6.972;2022-08-25T09:16:48;29.90;99.90
15636;DHT22;7917;50.818;6.972;2022-08-25T09:19:43;30.00;99.90
15636;DHT22;7917;50.818;6.972;2022-08-25T09:22:17;30.10;99.90
15636;DHT22;7917;50.818;6.972;2022-08-25T09:24:54;30.20;99.90
15636;DHT22;7917;50.818;6.972;2022-08-25T09:27:28;30.40;99.90
15636;DHT22;7917;50.818;6.972;2022-08-25T09:29:59;30.50;99.90
15636;DHT22;7917;50.818;6.972;2022-08-25T09:32:36;30.50;99.90
15636;DHT22;7917;50.818;6.972;2022-08-25T09:35:06;30.50;99.90
15636;DHT22;7917;50.818;6.972;2022-08-25T09:37:36;30.50;99.90
15636;DHT22;7917;50.818;6.972;2022-08-25T09:40:04;30.70;99.90
15636;DHT22;7917;50.818;6.972;2022-08-25T09:42:51;30.80;99.90
15636;DHT22;7917;50.818;6.972;2022-08-25T09:45:33;30.80;99.90
15636;DHT22;7917;50.818;6.972;2022-08-25T09:48:20;30.60;99.90
15636;DHT22;7917;50.818;6.972;2022-08-25T09:50:48;30.60;99.90
15636;DHT22;7917;50.818;6.972;2022-08-25T09:53:17;30.60;99.90
15636;DHT22;7917;50.818;6.972;2022-08-25T09:55:46;30.80;99.90
15636;DHT22;7917;50.818;6.972;2022-08-25T09:58:22;31.10;99.90
15636;DHT22;7917;50.818;6.972;2022-08-25T10:01:03;31.00;99.90
15636;DHT22;7917;50.818;6.972;2022-08-25T10:03:32;31.10;99.90
15636;DHT22;7917;50.818;6.972;2022-08-25T10:06:03;31.10;99.90
15636;DHT22;7917;50.818;6.972;2022-08-25T10:08:35;31.20;99.90
15636;DHT22;7917;50.818;6.972;2022-08-25T10:11:05;31.20;99.90
15636;DHT22;7917;50.818;6.972;2022-08-25T10:13:39;31.30;99.90
15636;DHT22;7917;50.818;6.972;2022-08-25T10:16:18;31.50;99.90
15636;DHT22;7917;50.818;6.972;2022-08-25T10:19:00;31.60;99.90
15636;DHT22;7917;50.818;6.972;2022-08-25T10:21:29;31.70;99.90
15636;DHT22;7917;50.818;6.972;2022-08-25T10:23:56;31.80;99.90
15636;DHT22;7917;50.818;6.972;2022-08-25T10:26:33;31.50;99.90
15636;DHT22;7917;50.818;6.972;2022-08-25T10:29:12;31.40;99.90
15636;DHT22;7917;50.818;6.972;2022-08-25T10:31:47;31.60;99.90
15636;DHT22;7917;50.818;6.972;2022-08-25T10:34:29;31.70;99.90
15636;DHT22;7917;50.818;6.972;2022-08-25T10:37:07;31.90;99.90
15636;DHT22;7917;50.818;6.972;2022-08-25T10:39:40;32.00;99.90
15636;DHT22;7917;50.818;6.972;2022-08-25T10:42:18;32.10;99.90
15636;DHT22;7917;50.818;6.972;2022-08-25T10:45:16;32.00;99.90
15636;DHT22;7917;50.818;6.972;2022-08-25T10:48:22;32.00;99.90
15636;DHT22;7917;50.818;6.972;2022-08-25T10:50:55;32.20;99.90
15636;DHT22;7917;50.818;6.972;2022-08-25T10:53:28;32.20;99.90
15636;DHT22;7917;50.818;6.972;2022-08-25T10:56:06;32.30;99.90
15636;DHT22;7917;50.818;6.972;2022-08-25T10:58:49;32.20;99.90
15636;DHT22;7917;50.818;6.972;2022-08-25T11:01:29;32.20;99.90
15636;DHT22;7917;50.818;6.972;2022-08-25T11:03:59;32.30;99.90
15636;DHT22;7917;50.818;6.972;2022-08-25T11:06:35;32.40;99.90
15636;DHT22;7917;50.818;6.972;2022-08-25T11:09:06;32.30;99.90
15636;DHT22;7917;50.818;6.972;2022-08-25T11:11:38;32.50;99.90
15636;DHT22;7917;50.818;6.972;2022-08-25T11:14:10;32.50;99.90
15636;DHT22;7917;50.818;6.972;2022-08-25T11:16:44;32.40;99.90
15636;DHT22;7917;50.818;6.972;2022-08-25T11:19:18;32.40;99.90
15636;DHT22;7917;50.818;6.972;2022-08-25T11:21:50;32.50;99.90
15636;DHT22;7917;50.818;6.972;2022-08-25T11:24:32;32.20;99.90
15636;DHT22;7917;50.818;6.972;2022-08-25T11:27:05;32.10;99.90
15636;DHT22;7917;50.818;6.972;2022-08-25T11:29:36;32.20;99.90
15636;DHT22;7917;50.818;6.972;2022-08-25T11:32:06;32.20;99.90
15636;DHT22;7917;50.818;6.972;2022-08-25T11:34:35;32.00;99.90
15636;DHT22;7917;50.818;6.972;2022-08-25T11:37:10;32.20;99.90
15636;DHT22;7917;50.818;6.972;2022-08-25T11:40:13;32.60;99.90
15636;DHT22;7917;50.818;6.972;2022-08-25T11:43:00;32.70;99.90
15636;DHT22;7917;50.818;6.972;2022-08-25T11:45:53;32.60;99.90
15636;DHT22;7917;50.818;6.972;2022-08-25T11:48:40;32.80;99.90
15636;DHT22;7917;50.818;6.972;2022-08-25T11:51:29;32.90;99.90
15636;DHT22;7917;50.818;6.972;2022-08-25T11:54:20;33.00;99.90
15636;DHT22;7917;50.818;6.972;2022-08-25T11:56:52;33.20;99.90
15636;DHT22;7917;50.818;6.972;2022-08-25T12:00:00;33.50;99.90
15636;DHT22;7917;50.818;6.972;2022-08-25T12:02:32;33.30;99.90
15636;DHT22;7917;50.818;6.972;2022-08-25T12:05:03;33.60;99.90
15636;DHT22;7917;50.818;6.972;2022-08-25T12:08:02;33.70;99.90
15636;DHT22;7917;50.818;6.972;2022-08-25T12:10:56;33.60;99.90
15636;DHT22;7917;50.818;6.972;2022-08-25T12:13:39;33.40;99.90
15636;DHT22;7917;50.818;6.972;2022-08-25T12:16:35;33.40;99.90
15636;DHT22;7917;50.818;6.972;2022-08-25T12:19:29;33.50;99.90
15636;DHT22;7917;50.818;6.972;2022-08-25T12:25:05;34.10;99.90
15636;DHT22;7917;50.818;6.972;2022-08-25T12:27:41;34.30;99.90
15636;DHT22;7917;50.818;6.972;2022-08-25T12:30:15;34.50;99.90
15636;DHT22;7917;50.818;6.972;2022-08-25T12:32:54;34.60;99.90
15636;DHT22;7917;50.818;6.972;2022-08-25T12:35:28;34.60;99.90
15636;DHT22;7917;50.818;6.972;2022-08-25T12:38:03;34.30;99.90
15636;DHT22;7917;50.818;6.972;2022-08-25T12:40:34;33.90;99.90
15636;DHT22;7917;50.818;6.972;2022-08-25T12:43:07;34.00;99.90
15636;DHT22;7917;50.818;6.972;2022-08-25T12:45:39;34.00;99.90
15636;DHT22;7917;50.818;6.972;2022-08-25T12:48:42;34.20;99.90
15636;DHT22;7917;50.818;6.972;2022-08-25T12:51:23;34.20;99.90
15636;DHT22;7917;50.818;6.972;2022-08-25T12:53:56;34.00;99.90
15636;DHT22;7917;50.818;6.972;2022-08-25T12:56:29;34.20;99.90
15636;DHT22;7917;50.818;6.972;2022-08-25T12:59:14;34.30;99.90
15636;DHT22;7917;50.818;6.972;2022-08-25T13:02:16;34.50;99.90
15636;DHT22;7917;50.818;6.972;2022-08-25T13:05:16;34.20;99.90
15636;DHT22;7917;50.818;6.972;2022-08-25T13:08:21;34.20;99.90
15636;DHT22;7917;50.818;6.972;2022-08-25T13:10:59;34.20;99.90
15636;DHT22;7917;50.818;6.972;2022-08-25T13:13:38;34.10;99.90
15636;DHT22;7917;50.818;6.972;2022-08-25T13:16:16;34.00;99.90
15636;DHT22;7917;50.818;6.972;2022-08-25T13:18:44;34.30;99.90
15636;DHT22;7917;50.818;6.972;2022-08-25T13:21:15;34.40;99.90
15636;DHT22;7917;50.818;6.972;2022-08-25T13:23:44;34.50;99.90
15636;DHT22;7917;50.818;6.972;2022-08-25T13:26:14;34.60;99.90
15636;DHT22;7917;50.818;6.972;2022-08-25T13:28:43;34.70;99.90
15636;DHT22;7917;50.818;6.972;2022-08-25T13:31:18;34.70;99.90
15636;DHT22;7917;50.818;6.972;2022-08-25T13:33:52;34.80;99.90
15636;DHT22;7917;50.818;6.972;2022-08-25T13:36:19;34.90;99.90
15636;DHT22;7917;50.818;6.972;2022-08-25T13:39:13;34.30;99.90
15636;DHT22;7917;50.818;6.972;2022-08-25T13:41:46;34.30;99.90
15636;DHT22;7917;50.818;6.972;2022-08-25T13:44:15;34.30;99.90
15636;DHT22;7917;50.818;6.972;2022-08-25T13:46:44;34.20;99.90
15636;DHT22;7917;50.818;6.972;2022-08-25T13:49:11;34.20;99.90
15636;DHT22;7917;50.818;6.972;2022-08-25T13:51:50;34.20;99.90
15636;DHT22;7917;50.818;6.972;2022-08-25T13:54:24;34.20;99.90
15636;DHT22;7917;50.818;6.972;2022-08-25T13:56:54;34.10;99.90
15636;DHT22;7917;50.818;6.972;2022-08-25T13:59:38;34.30;99.90
15636;DHT22;7917;50.818;6.972;2022-08-25T14:02:08;34.50;99.90
15636;DHT22;7917;50.818;6.972;2022-08-25T14:04:47;34.70;99.90
15636;DHT22;7917;50.818;6.972;2022-08-25T14:07:28;34.70;99.90
15636;DHT22;7917;50.818;6.972;2022-08-25T14:09:58;34.80;99.90
15636;DHT22;7917;50.818;6.972;2022-08-25T14:12:35;34.60;99.90
15636;DHT22;7917;50.818;6.972;2022-08-25T14:15:11;34.60;99.90
15636;DHT22;7917;50.818;6.972;2022-08-25T14:17:40;34.50;99.90
15636;DHT22;7917;50.818;6.972;2022-08-25T14:20:20;34.40;99.90
15636;DHT22;7917;50.818;6.972;2022-08-25T14:22:54;34.20;99.90
15636;DHT22;7917;50.818;6.972;2022-08-25T14:25:23;34.40;99.90
15636;DHT22;7917;50.818;6.972;2022-08-25T14:27:59;34.50;99.90
15636;DHT22;7917;50.818;6.972;2022-08-25T14:30:29;34.70;99.90
15636;DHT22;7917;50.818;6.972;2022-08-25T14:32:57;34.60;99.90
15636;DHT22;7917;50.818;6.972;2022-08-25T14:35:24;35.00;99.90
15636;DHT22;7917;50.818;6.972;2022-08-25T14:37:52;35.30;99.90
15636;DHT22;7917;50.818;6.972;2022-08-25T14:40:19;35.80;99.90
15636;DHT22;7917;50.818;6.972;2022-08-25T14:42:47;36.10;99.90
15636;DHT22;7917;50.818;6.972;2022-08-25T14:45:17;36.30;99.90
15636;DHT22;7917;50.818;6.972;2022-08-25T14:47:45;36.50;99.90
15636;DHT22;7917;50.818;6.972;2022-08-25T14:50:13;36.70;99.90
15636;DHT22;7917;50.818;6.972;2022-08-25T14:52:42;37.20;99.90
15636;DHT22;7917;50.818;6.972;2022-08-25T14:55:10;37.50;99.90
15636;DHT22;7917;50.818;6.972;2022-08-25T14:57:38;37.40;99.90
15636;DHT22;7917;50.818;6.972;2022-08-25T15:00:07;37.60;99.90
15636;DHT22;7917;50.818;6.972;2022-08-25T15:02:40;38.00;99.90
15636;DHT22;7917;50.818;6.972;2022-08-25T15:05:08;38.00;99.90
15636;DHT22;7917;50.818;6.972;2022-08-25T15:07:37;38.20;99.90
15636;DHT22;7917;50.818;6.972;2022-08-25T15:10:22;38.70;99.90
15636;DHT22;7917;50.818;6.972;2022-08-25T15:12:49;39.20;99.90
15636;DHT22;7917;50.818;6.972;2022-08-25T15:15:19;39.30;99.90
15636;DHT22;7917;50.818;6.972;2022-08-25T15:17:52;39.10;99.90
15636;DHT22;7917;50.818;6.972;2022-08-25T15:20:21;39.00;99.90
15636;DHT22;7917;50.818;6.972;2022-08-25T15:22:49;39.30;99.90
15636;DHT22;7917;50.818;6.972;2022-08-25T15:25:16;39.30;99.90
15636;DHT22;7917;50.818;6.972;2022-08-25T15:27:43;39.30;99.90
15636;DHT22;7917;50.818;6.972;2022-08-25T15:30:12;39.50;99.90
15636;DHT22;7917;50.818;6.972;2022-08-25T15:32:42;39.20;99.90
15636;DHT22;7917;50.818;6.972;2022-08-25T15:35:13;39.40;99.90
15636;DHT22;7917;50.818;6.972;2022-08-25T15:37:40;38.90;99.90
15636;DHT22;7917;50.818;6.972;2022-08-25T15:40:08;38.50;99.90
15636;DHT22;7917;50.818;6.972;2022-08-25T15:42:36;38.50;99.90
15636;DHT22;7917;50.818;6.972;2022-08-25T15:45:04;38.70;99.90
15636;DHT22;7917;50.818;6.972;2022-08-25T15:47:35;38.60;99.90
15636;DHT22;7917;50.818;6.972;2022-08-25T15:50:07;38.60;99.90
15636;DHT22;7917;50.818;6.972;2022-08-25T15:52:35;38.30;99.90
15636;DHT22;7917;50.818;6.972;2022-08-25T15:55:04;38.20;99.90
15636;DHT22;7917;50.818;6.972;2022-08-25T15:57:31;37.50;99.90
15636;DHT22;7917;50.818;6.972;2022-08-25T15:59:58;37.10;99.90
15636;DHT22;7917;50.818;6.972;2022-08-25T16:02:26;37.00;99.90
15636;DHT22;7917;50.818;6.972;2022-08-25T16:05:03;37.10;99.90
15636;DHT22;7917;50.818;6.972;2022-08-25T16:07:30;36.80;99.90
15636;DHT22;7917;50.818;6.972;2022-08-25T16:09:59;36.50;99.90
15636;DHT22;7917;50.818;6.972;2022-08-25T16:12:29;36.00;99.90
15636;DHT22;7917;50.818;6.972;2022-08-25T16:14:58;35.60;99.90
15636;DHT22;7917;50.818;6.972;2022-08-25T16:17:26;35.10;99.90
15636;DHT22;7917;50.818;6.972;2022-08-25T16:19:54;34.80;99.90
15636;DHT22;7917;50.818;6.972;2022-08-25T16:22:22;34.40;99.90